sensor_id;sensor_type;location;lat;lon;timestamp;temperature;humidity
52267;DHT22;38223;50.940;4.034;2023-12-07T00:02:24;4.60;99.90
52267;DHT22;38223;50.940;4.034;2023-12-07T00:04:55;4.80;99.90
52267;DHT22;38223;50.940;4.034;2023-12-07T00:07:22;4.80;99.90
52267;DHT22;38223;50.940;4.034;2023-12-07T00:09:52;4.80;99.90
52267;DHT22;38223;50.940;4.034;2023-12-07T00:12:22;4.90;99.90
52267;DHT22;38223;50.940;4.034;2023-12-07T00:14:53;4.80;99.90
52267;DHT22;38223;50.940;4.034;2023-12-07T00:17:21;4.80;99.90
52267;DHT22;38223;50.940;4.034;2023-12-07T00:19:50;4.80;99.90
52267;DHT22;38223;50.940;4.034;2023-12-07T00:22:22;4.90;99.90
52267;DHT22;38223;50.940;4.034;2023-12-07T00:24:51;4.90;99.90
52267;DHT22;38223;50.940;4.034;2023-12-07T00:27:21;4.90;99.90
52267;DHT22;38223;50.940;4.034;2023-12-07T00:29:51;4.90;99.90
52267;DHT22;38223;50.940;4.034;2023-12-07T00:32:25;5.00;99.90
52267;DHT22;38223;50.940;4.034;2023-12-07T00:34:53;5.00;99.90
52267;DHT22;38223;50.940;4.034;2023-12-07T00:37:21;5.00;99.90
52267;DHT22;38223;50.940;4.034;2023-12-07T00:39:51;4.90;99.90
52267;DHT22;38223;50.940;4.034;2023-12-07T00:42:21;4.90;99.90
52267;DHT22;38223;50.940;4.034;2023-12-07T00:44:52;5.00;99.90
52267;DHT22;38223;50.940;4.034;2023-12-07T00:47:23;5.10;99.90
52267;DHT22;38223;50.940;4.034;2023-12-07T00:49:53;5.10;99.90
52267;DHT22;38223;50.940;4.034;2023-12-07T00:52:24;5.20;99.90
52267;DHT22;38223;50.940;4.034;2023-12-07T00:54:54;5.20;99.90
52267;DHT22;38223;50.940;4.034;2023-12-07T00:57:22;5.20;99.90
52267;DHT22;38223;50.940;4.034;2023-12-07T00:59:50;5.10;99.90
52267;DHT22;38223;50.940;4.034;2023-12-07T01:02:23;5.10;99.90
52267;DHT22;38223;50.940;4.034;2023-12-07T01:04:51;5.00;99.90
52267;DHT22;38223;50.940;4.034;2023-12-07T01:07:18;5.00;99.90
52267;DHT22;38223;50.940;4.034;2023-12-07T01:09:48;5.00;99.90
52267;DHT22;38223;50.940;4.034;2023-12-07T01:12:19;5.00;99.90
52267;DHT22;38223;50.940;4.034;2023-12-07T01:14:51;5.10;99.90
52267;DHT22;38223;50.940;4.034;2023-12-07T01:17:17;5.10;99.90
52267;DHT22;38223;50.940;4.034;2023-12-07T01:19:47;5.10;99.90
52267;DHT22;38223;50.940;4.034;2023-12-07T01:22:17;5.00;99.90
52267;DHT22;38223;50.940;4.034;2023-12-07T01:24:46;5.00;99.90
52267;DHT22;38223;50.940;4.034;2023-12-07T01:27:15;5.10;99.90
52267;DHT22;38223;50.940;4.034;2023-12-07T01:29:45;5.10;99.90
52267;DHT22;38223;50.940;4.034;2023-12-07T01:32:14;5.10;99.90
52267;DHT22;38223;50.940;4.034;2023-12-07T01:34:45;5.30;99.90
52267;DHT22;38223;50.940;4.034;2023-12-07T01:37:15;5.50;99.90
52267;DHT22;38223;50.940;4.034;2023-12-07T01:39:45;5.50;99.90
52267;DHT22;38223;50.940;4.034;2023-12-07T01:42:14;5.50;99.90
52267;DHT22;38223;50.940;4.034;2023-12-07T01:44:44;5.60;99.90
52267;DHT22;38223;50.940;4.034;2023-12-07T01:47:16;5.70;99.90
52267;DHT22;38223;50.940;4.034;2023-12-07T01:49:45;5.40;99.90
52267;DHT22;38223;50.940;4.034;2023-12-07T01:52:16;5.40;99.90
52267;DHT22;38223;50.940;4.034;2023-12-07T01:54:47;5.40;99.90
52267;DHT22;38223;50.940;4.034;2023-12-07T01:57:17;5.40;99.90
52267;DHT22;38223;50.940;4.034;2023-12-07T01:59:48;5.50;99.90
52267;DHT22;38223;50.940;4.034;2023-12-07T02:02:18;5.60;99.90
52267;DHT22;38223;50.940;4.034;2023-12-07T02:04:48;5.50;99.90
52267;DHT22;38223;50.940;4.034;2023-12-07T02:07:17;5.40;99.90
52267;DHT22;38223;50.940;4.034;2023-12-07T02:09:46;5.30;99.90
52267;DHT22;38223;50.940;4.034;2023-12-07T02:12:16;5.20;99.90
52267;DHT22;38223;50.940;4.034;2023-12-07T02:14:45;5.20;99.90
52267;DHT22;38223;50.940;4.034;2023-12-07T02:22:32;5.00;99.90
52267;DHT22;38223;50.940;4.034;2023-12-07T02:30:08;4.80;99.90
52267;DHT22;38223;50.940;4.034;2023-12-07T02:32:42;4.90;99.90
52267;DHT22;38223;50.940;4.034;2023-12-07T02:35:13;5.00;99.90
52267;DHT22;38223;50.940;4.034;2023-12-07T02:37:46;5.00;99.90
52267;DHT22;38223;50.940;4.034;2023-12-07T02:40:17;5.10;99.90
52267;DHT22;38223;50.940;4.034;2023-12-07T02:42:43;5.10;99.90
52267;DHT22;38223;50.940;4.034;2023-12-07T02:45:13;5.00;99.90
52267;DHT22;38223;50.940;4.034;2023-12-07T02:47:42;5.10;99.90
52267;DHT22;38223;50.940;4.034;2023-12-07T02:50:12;5.20;99.90
52267;DHT22;38223;50.940;4.034;2023-12-07T02:52:44;5.10;99.90
52267;DHT22;38223;50.940;4.034;2023-12-07T02:55:13;5.10;99.90
52267;DHT22;38223;50.940;4.034;2023-12-07T02:57:41;5.00;99.90
52267;DHT22;38223;50.940;4.034;2023-12-07T03:00:09;5.00;99.90
52267;DHT22;38223;50.940;4.034;2023-12-07T03:36:15;5.30;99.90
52267;DHT22;38223;50.940;4.034;2023-12-07T03:41:17;5.40;99.90
52267;DHT22;38223;50.940;4.034;2023-12-07T03:43:47;5.50;99.90
52267;DHT22;38223;50.940;4.034;2023-12-07T03:46:17;5.50;99.90
52267;DHT22;38223;50.940;4.034;2023-12-07T03:48:48;5.60;99.90
52267;DHT22;38223;50.940;4.034;2023-12-07T03:51:17;5.60;99.90
52267;DHT22;38223;50.940;4.034;2023-12-07T03:53:45;5.60;99.90
52267;DHT22;38223;50.940;4.034;2023-12-07T03:56:26;5.70;99.90
52267;DHT22;38223;50.940;4.034;2023-12-07T03:58:53;5.60;99.90
52267;DHT22;38223;50.940;4.034;2023-12-07T04:01:25;5.70;99.90
52267;DHT22;38223;50.940;4.034;2023-12-07T04:03:56;5.80;99.90
52267;DHT22;38223;50.940;4.034;2023-12-07T04:06:27;5.80;99.90
52267;DHT22;38223;50.940;4.034;2023-12-07T04:08:55;5.90;99.90
52267;DHT22;38223;50.940;4.034;2023-12-07T04:11:26;5.80;99.90
52267;DHT22;38223;50.940;4.034;2023-12-07T04:13:55;5.60;99.90
52267;DHT22;38223;50.940;4.034;2023-12-07T04:16:24;5.60;99.90
52267;DHT22;38223;50.940;4.034;2023-12-07T04:18:55;5.50;99.90
52267;DHT22;38223;50.940;4.034;2023-12-07T04:21:24;5.50;99.90
52267;DHT22;38223;50.940;4.034;2023-12-07T04:23:51;5.40;99.90
52267;DHT22;38223;50.940;4.034;2023-12-07T04:26:20;5.50;99.90
52267;DHT22;38223;50.940;4.034;2023-12-07T04:28:49;5.50;99.90
52267;DHT22;38223;50.940;4.034;2023-12-07T04:31:19;5.50;99.90
52267;DHT22;38223;50.940;4.034;2023-12-07T04:33:48;5.60;99.90
52267;DHT22;38223;50.940;4.034;2023-12-07T04:36:15;5.60;99.90
52267;DHT22;38223;50.940;4.034;2023-12-07T04:38:46;5.70;99.90
52267;DHT22;38223;50.940;4.034;2023-12-07T04:41:16;5.70;99.90
52267;DHT22;38223;50.940;4.034;2023-12-07T04:43:43;5.80;99.90
52267;DHT22;38223;50.940;4.034;2023-12-07T04:46:12;5.90;99.90
52267;DHT22;38223;50.940;4.034;2023-12-07T04:48:41;5.90;99.90
52267;DHT22;38223;50.940;4.034;2023-12-07T04:51:08;5.80;99.90
52267;DHT22;38223;50.940;4.034;2023-12-07T04:53:37;5.80;99.90
52267;DHT22;38223;50.940;4.034;2023-12-07T04:56:05;5.80;99.90
52267;DHT22;38223;50.940;4.034;2023-12-07T04:58:33;5.80;99.90
52267;DHT22;38223;50.940;4.034;2023-12-07T05:01:01;5.70;99.90
52267;DHT22;38223;50.940;4.034;2023-12-07T05:03:31;5.60;99.90
52267;DHT22;38223;50.940;4.034;2023-12-07T05:06:05;5.50;99.90
52267;DHT22;38223;50.940;4.034;2023-12-07T05:08:32;5.50;99.90
52267;DHT22;38223;50.940;4.034;2023-12-07T05:10:59;5.40;99.90
52267;DHT22;38223;50.940;4.034;2023-12-07T05:13:28;5.30;99.90
52267;DHT22;38223;50.940;4.034;2023-12-07T05:15:57;5.30;99.90
52267;DHT22;38223;50.940;4.034;2023-12-07T05:18:24;5.30;99.90
52267;DHT22;38223;50.940;4.034;2023-12-07T05:20:55;5.20;99.90
52267;DHT22;38223;50.940;4.034;2023-12-07T05:23:25;5.20;99.90
52267;DHT22;38223;50.940;4.034;2023-12-07T05:25:54;5.20;99.90
52267;DHT22;38223;50.940;4.034;2023-12-07T05:28:21;5.20;99.90
52267;DHT22;38223;50.940;4.034;2023-12-07T05:30:51;5.20;99.90
52267;DHT22;38223;50.940;4.034;2023-12-07T05:33:22;5.20;99.90
52267;DHT22;38223;50.940;4.034;2023-12-07T05:35:52;5.20;99.90
52267;DHT22;38223;50.940;4.034;2023-12-07T05:38:21;5.30;99.90
52267;DHT22;38223;50.940;4.034;2023-12-07T05:40:51;5.30;99.90
52267;DHT22;38223;50.940;4.034;2023-12-07T05:43:23;5.30;99.90
52267;DHT22;38223;50.940;4.034;2023-12-07T05:45:51;5.30;99.90
52267;DHT22;38223;50.940;4.034;2023-12-07T05:48:20;5.20;99.90
52267;DHT22;38223;50.940;4.034;2023-12-07T05:50:48;5.20;99.90
52267;DHT22;38223;50.940;4.034;2023-12-07T05:53:18;5.10;99.90
52267;DHT22;38223;50.940;4.034;2023-12-07T05:55:46;5.10;99.90
52267;DHT22;38223;50.940;4.034;2023-12-07T05:58:17;5.00;99.90
52267;DHT22;38223;50.940;4.034;2023-12-07T06:00:50;5.10;99.90
52267;DHT22;38223;50.940;4.034;2023-12-07T06:03:19;5.20;99.90
52267;DHT22;38223;50.940;4.034;2023-12-07T06:05:47;5.10;99.90
52267;DHT22;38223;50.940;4.034;2023-12-07T06:08:15;5.00;99.90
52267;DHT22;38223;50.940;4.034;2023-12-07T06:10:45;5.00;99.90
52267;DHT22;38223;50.940;4.034;2023-12-07T06:13:14;5.20;99.90
52267;DHT22;38223;50.940;4.034;2023-12-07T06:15:44;5.20;99.90
52267;DHT22;38223;50.940;4.034;2023-12-07T06:18:15;5.30;99.90
52267;DHT22;38223;50.940;4.034;2023-12-07T06:20:44;5.40;99.90
52267;DHT22;38223;50.940;4.034;2023-12-07T06:23:15;5.50;99.90
52267;DHT22;38223;50.940;4.034;2023-12-07T06:25:42;5.70;99.90
52267;DHT22;38223;50.940;4.034;2023-12-07T06:28:10;5.90;99.90
52267;DHT22;38223;50.940;4.034;2023-12-07T06:30:40;6.10;99.90
52267;DHT22;38223;50.940;4.034;2023-12-07T06:33:11;5.90;99.90
52267;DHT22;38223;50.940;4.034;2023-12-07T06:35:38;6.00;99.90
52267;DHT22;38223;50.940;4.034;2023-12-07T06:38:05;5.90;99.90
52267;DHT22;38223;50.940;4.034;2023-12-07T06:40:34;6.00;99.90
52267;DHT22;38223;50.940;4.034;2023-12-07T06:43:02;6.20;99.90
52267;DHT22;38223;50.940;4.034;2023-12-07T06:45:30;6.40;99.90
52267;DHT22;38223;50.940;4.034;2023-12-07T06:48:01;6.20;99.90
52267;DHT22;38223;50.940;4.034;2023-12-07T06:50:31;6.10;99.90
52267;DHT22;38223;50.940;4.034;2023-12-07T06:53:00;5.80;99.90
52267;DHT22;38223;50.940;4.034;2023-12-07T06:55:30;5.70;99.90
52267;DHT22;38223;50.940;4.034;2023-12-07T06:57:58;5.70;99.90
52267;DHT22;38223;50.940;4.034;2023-12-07T07:00:25;5.70;99.90
52267;DHT22;38223;50.940;4.034;2023-12-07T07:02:56;5.90;99.90
52267;DHT22;38223;50.940;4.034;2023-12-07T07:05:29;6.10;99.90
52267;DHT22;38223;50.940;4.034;2023-12-07T07:07:59;6.50;99.90
52267;DHT22;38223;50.940;4.034;2023-12-07T07:10:26;6.30;99.90
52267;DHT22;38223;50.940;4.034;2023-12-07T07:12:52;5.90;99.90
52267;DHT22;38223;50.940;4.034;2023-12-07T07:15:19;5.50;99.90
52267;DHT22;38223;50.940;4.034;2023-12-07T07:17:46;5.50;99.90
52267;DHT22;38223;50.940;4.034;2023-12-07T07:20:15;5.40;99.90
52267;DHT22;38223;50.940;4.034;2023-12-07T07:22:43;5.40;99.90
52267;DHT22;38223;50.940;4.034;2023-12-07T07:25:13;5.30;99.90
52267;DHT22;38223;50.940;4.034;2023-12-07T07:27:41;5.40;99.90
52267;DHT22;38223;50.940;4.034;2023-12-07T07:30:13;5.50;99.90
52267;DHT22;38223;50.940;4.034;2023-12-07T07:32:43;5.80;99.90
52267;DHT22;38223;50.940;4.034;2023-12-07T07:35:12;5.80;99.90
52267;DHT22;38223;50.940;4.034;2023-12-07T07:37:40;5.70;99.90
52267;DHT22;38223;50.940;4.034;2023-12-07T07:40:08;5.60;99.90
52267;DHT22;38223;50.940;4.034;2023-12-07T07:42:41;5.70;99.90
52267;DHT22;38223;50.940;4.034;2023-12-07T07:45:07;5.80;99.90
52267;DHT22;38223;50.940;4.034;2023-12-07T07:47:41;5.70;99.90
52267;DHT22;38223;50.940;4.034;2023-12-07T07:50:10;5.40;99.90
52267;DHT22;38223;50.940;4.034;2023-12-07T07:52:40;5.50;99.90
52267;DHT22;38223;50.940;4.034;2023-12-07T07:55:09;5.40;99.90
52267;DHT22;38223;50.940;4.034;2023-12-07T07:57:38;5.10;99.90
52267;DHT22;38223;50.940;4.034;2023-12-07T08:00:06;5.40;99.90
52267;DHT22;38223;50.940;4.034;2023-12-07T08:02:34;5.40;99.90
52267;DHT22;38223;50.940;4.034;2023-12-07T08:05:06;5.40;99.90
52267;DHT22;38223;50.940;4.034;2023-12-07T08:07:33;5.50;99.90
52267;DHT22;38223;50.940;4.034;2023-12-07T08:10:00;5.60;99.90
52267;DHT22;38223;50.940;4.034;2023-12-07T08:12:29;5.30;99.90
52267;DHT22;38223;50.940;4.034;2023-12-07T08:14:56;5.50;99.90
52267;DHT22;38223;50.940;4.034;2023-12-07T08:17:24;5.80;99.90
52267;DHT22;38223;50.940;4.034;2023-12-07T08:19:52;5.70;99.90
52267;DHT22;38223;50.940;4.034;2023-12-07T08:22:19;6.00;99.90
52267;DHT22;38223;50.940;4.034;2023-12-07T08:24:46;6.30;99.90
52267;DHT22;38223;50.940;4.034;2023-12-07T08:27:13;6.20;99.90
52267;DHT22;38223;50.940;4.034;2023-12-07T08:29:40;6.10;99.90
52267;DHT22;38223;50.940;4.034;2023-12-07T08:32:09;6.10;99.90
52267;DHT22;38223;50.940;4.034;2023-12-07T08:34:38;6.00;99.90
52267;DHT22;38223;50.940;4.034;2023-12-07T08:37:08;6.20;99.90
52267;DHT22;38223;50.940;4.034;2023-12-07T08:39:39;6.00;99.90
52267;DHT22;38223;50.940;4.034;2023-12-07T08:42:09;5.60;99.90
52267;DHT22;38223;50.940;4.034;2023-12-07T08:44:42;5.80;99.90
52267;DHT22;38223;50.940;4.034;2023-12-07T08:47:12;5.80;99.90
52267;DHT22;38223;50.940;4.034;2023-12-07T08:49:45;5.90;99.90
52267;DHT22;38223;50.940;4.034;2023-12-07T08:52:15;6.20;99.90
52267;DHT22;38223;50.940;4.034;2023-12-07T08:54:45;6.40;99.90
52267;DHT22;38223;50.940;4.034;2023-12-07T08:57:13;6.40;99.90
52267;DHT22;38223;50.940;4.034;2023-12-07T08:59:43;6.50;99.90
52267;DHT22;38223;50.940;4.034;2023-12-07T09:02:13;6.40;99.90
52267;DHT22;38223;50.940;4.034;2023-12-07T09:04:44;6.60;99.90
52267;DHT22;38223;50.940;4.034;2023-12-07T09:07:20;6.60;99.90
52267;DHT22;38223;50.940;4.034;2023-12-07T09:09:54;6.70;99.90
52267;DHT22;38223;50.940;4.034;2023-12-07T09:12:22;6.50;99.90
52267;DHT22;38223;50.940;4.034;2023-12-07T09:14:50;6.30;99.90
52267;DHT22;38223;50.940;4.034;2023-12-07T09:17:17;6.30;99.90
52267;DHT22;38223;50.940;4.034;2023-12-07T09:19:45;6.50;99.90
52267;DHT22;38223;50.940;4.034;2023-12-07T09:22:19;6.60;99.90
52267;DHT22;38223;50.940;4.034;2023-12-07T09:24:46;6.60;99.90
52267;DHT22;38223;50.940;4.034;2023-12-07T09:27:16;6.50;99.90
52267;DHT22;38223;50.940;4.034;2023-12-07T09:29:44;6.20;99.90
52267;DHT22;38223;50.940;4.034;2023-12-07T09:32:11;5.80;99.90
52267;DHT22;38223;50.940;4.034;2023-12-07T09:34:39;5.90;99.90
52267;DHT22;38223;50.940;4.034;2023-12-07T09:37:09;6.20;99.90
52267;DHT22;38223;50.940;4.034;2023-12-07T09:39:36;6.30;99.90
52267;DHT22;38223;50.940;4.034;2023-12-07T09:42:05;6.40;99.90
52267;DHT22;38223;50.940;4.034;2023-12-07T09:44:32;6.30;99.90
52267;DHT22;38223;50.940;4.034;2023-12-07T09:47:01;6.40;99.90
52267;DHT22;38223;50.940;4.034;2023-12-07T09:49:31;6.60;99.90
52267;DHT22;38223;50.940;4.034;2023-12-07T09:51:58;6.40;99.90
52267;DHT22;38223;50.940;4.034;2023-12-07T09:54:27;6.50;99.90
52267;DHT22;38223;50.940;4.034;2023-12-07T09:56:56;6.50;99.90
52267;DHT22;38223;50.940;4.034;2023-12-07T09:59:24;6.60;99.90
52267;DHT22;38223;50.940;4.034;2023-12-07T10:01:52;6.60;99.90
52267;DHT22;38223;50.940;4.034;2023-12-07T10:04:21;6.40;99.90
52267;DHT22;38223;50.940;4.034;2023-12-07T10:06:52;6.40;99.90
52267;DHT22;38223;50.940;4.034;2023-12-07T10:09:22;6.50;99.90
52267;DHT22;38223;50.940;4.034;2023-12-07T10:12:01;6.60;99.90
52267;DHT22;38223;50.940;4.034;2023-12-07T10:14:21;6.60;99.90
52267;DHT22;38223;50.940;4.034;2023-12-07T10:16:53;6.60;99.90
52267;DHT22;38223;50.940;4.034;2023-12-07T10:19:24;6.40;99.90
52267;DHT22;38223;50.940;4.034;2023-12-07T10:21:53;6.60;99.90
52267;DHT22;38223;50.940;4.034;2023-12-07T10:24:23;6.60;99.90
52267;DHT22;38223;50.940;4.034;2023-12-07T10:27:10;6.80;99.90
52267;DHT22;38223;50.940;4.034;2023-12-07T10:29:39;6.80;99.90
52267;DHT22;38223;50.940;4.034;2023-12-07T10:32:10;6.70;99.90
52267;DHT22;38223;50.940;4.034;2023-12-07T10:34:43;6.70;99.90
52267;DHT22;38223;50.940;4.034;2023-12-07T10:37:11;6.90;99.90
52267;DHT22;38223;50.940;4.034;2023-12-07T10:39:38;7.00;99.90
52267;DHT22;38223;50.940;4.034;2023-12-07T10:42:05;6.80;99.90
52267;DHT22;38223;50.940;4.034;2023-12-07T10:44:33;6.80;99.90
52267;DHT22;38223;50.940;4.034;2023-12-07T10:47:02;6.90;99.90
52267;DHT22;38223;50.940;4.034;2023-12-07T10:49:34;6.90;99.90
52267;DHT22;38223;50.940;4.034;2023-12-07T10:52:05;6.90;99.90
52267;DHT22;38223;50.940;4.034;2023-12-07T10:57:11;6.80;99.90
52267;DHT22;38223;50.940;4.034;2023-12-07T10:59:41;6.70;99.90
52267;DHT22;38223;50.940;4.034;2023-12-07T11:02:12;6.70;99.90
52267;DHT22;38223;50.940;4.034;2023-12-07T11:04:42;6.60;99.90
52267;DHT22;38223;50.940;4.034;2023-12-07T11:07:13;6.50;99.90
52267;DHT22;38223;50.940;4.034;2023-12-07T11:09:42;6.60;99.90
52267;DHT22;38223;50.940;4.034;2023-12-07T11:12:10;6.60;99.90
52267;DHT22;38223;50.940;4.034;2023-12-07T11:14:38;6.70;99.90
52267;DHT22;38223;50.940;4.034;2023-12-07T11:17:08;7.00;99.90
52267;DHT22;38223;50.940;4.034;2023-12-07T11:22:10;7.30;99.90
52267;DHT22;38223;50.940;4.034;2023-12-07T11:24:57;7.20;99.90
52267;DHT22;38223;50.940;4.034;2023-12-07T11:27:30;7.30;99.90
52267;DHT22;38223;50.940;4.034;2023-12-07T11:29:59;7.30;99.90
52267;DHT22;38223;50.940;4.034;2023-12-07T11:32:29;7.40;99.90
52267;DHT22;38223;50.940;4.034;2023-12-07T11:35:01;7.40;99.90
52267;DHT22;38223;50.940;4.034;2023-12-07T11:37:27;7.50;99.90
52267;DHT22;38223;50.940;4.034;2023-12-07T11:39:55;7.60;99.90
52267;DHT22;38223;50.940;4.034;2023-12-07T11:42:24;7.80;99.90
52267;DHT22;38223;50.940;4.034;2023-12-07T11:44:55;7.80;99.90
52267;DHT22;38223;50.940;4.034;2023-12-07T11:47:25;7.70;99.90
52267;DHT22;38223;50.940;4.034;2023-12-07T11:49:55;7.80;99.90
52267;DHT22;38223;50.940;4.034;2023-12-07T11:52:24;7.80;99.90
52267;DHT22;38223;50.940;4.034;2023-12-07T11:54:52;7.80;99.90
52267;DHT22;38223;50.940;4.034;2023-12-07T11:57:19;7.60;99.90
52267;DHT22;38223;50.940;4.034;2023-12-07T11:59:46;7.70;99.90
52267;DHT22;38223;50.940;4.034;2023-12-07T12:02:17;7.70;99.90
52267;DHT22;38223;50.940;4.034;2023-12-07T12:04:47;7.80;99.90
52267;DHT22;38223;50.940;4.034;2023-12-07T12:07:18;7.70;99.90
52267;DHT22;38223;50.940;4.034;2023-12-07T12:09:46;7.80;99.90
52267;DHT22;38223;50.940;4.034;2023-12-07T12:12:14;7.80;99.90
52267;DHT22;38223;50.940;4.034;2023-12-07T12:14:44;7.90;99.90
52267;DHT22;38223;50.940;4.034;2023-12-07T12:17:14;7.90;99.90
52267;DHT22;38223;50.940;4.034;2023-12-07T12:19:44;7.80;99.90
52267;DHT22;38223;50.940;4.034;2023-12-07T12:22:12;7.90;99.90
52267;DHT22;38223;50.940;4.034;2023-12-07T12:24:41;8.00;99.90
52267;DHT22;38223;50.940;4.034;2023-12-07T12:27:11;8.10;99.90
52267;DHT22;38223;50.940;4.034;2023-12-07T12:29:39;8.00;99.90
52267;DHT22;38223;50.940;4.034;2023-12-07T12:32:09;8.10;99.90
52267;DHT22;38223;50.940;4.034;2023-12-07T12:34:36;8.20;99.90
52267;DHT22;38223;50.940;4.034;2023-12-07T12:37:03;8.40;99.90
52267;DHT22;38223;50.940;4.034;2023-12-07T12:39:35;8.40;99.90
52267;DHT22;38223;50.940;4.034;2023-12-07T12:42:02;8.60;99.90
52267;DHT22;38223;50.940;4.034;2023-12-07T12:44:30;8.50;99.90
52267;DHT22;38223;50.940;4.034;2023-12-07T12:46:57;8.50;99.90
52267;DHT22;38223;50.940;4.034;2023-12-07T12:49:34;8.60;99.90
52267;DHT22;38223;50.940;4.034;2023-12-07T12:51:54;8.60;99.90
52267;DHT22;38223;50.940;4.034;2023-12-07T12:54:30;8.60;99.90
52267;DHT22;38223;50.940;4.034;2023-12-07T12:56:56;8.30;99.90
52267;DHT22;38223;50.940;4.034;2023-12-07T12:59:24;8.30;99.90
52267;DHT22;38223;50.940;4.034;2023-12-07T13:01:55;8.50;99.90
52267;DHT22;38223;50.940;4.034;2023-12-07T13:04:24;8.50;99.90
52267;DHT22;38223;50.940;4.034;2023-12-07T13:06:54;8.30;99.90
52267;DHT22;38223;50.940;4.034;2023-12-07T13:09:21;8.30;99.90
52267;DHT22;38223;50.940;4.034;2023-12-07T13:11:48;8.20;99.90
52267;DHT22;38223;50.940;4.034;2023-12-07T13:14:15;8.10;99.90
52267;DHT22;38223;50.940;4.034;2023-12-07T13:16:43;7.90;99.90
52267;DHT22;38223;50.940;4.034;2023-12-07T13:19:10;7.90;99.90
52267;DHT22;38223;50.940;4.034;2023-12-07T13:21:37;8.10;99.90
52267;DHT22;38223;50.940;4.034;2023-12-07T13:24:04;8.00;99.90
52267;DHT22;38223;50.940;4.034;2023-12-07T13:26:35;8.00;99.90
52267;DHT22;38223;50.940;4.034;2023-12-07T13:29:03;8.00;99.90
52267;DHT22;38223;50.940;4.034;2023-12-07T13:31:32;8.20;99.90
52267;DHT22;38223;50.940;4.034;2023-12-07T13:34:00;8.20;99.90
52267;DHT22;38223;50.940;4.034;2023-12-07T13:36:28;8.10;99.90
52267;DHT22;38223;50.940;4.034;2023-12-07T13:38:56;8.00;99.90
52267;DHT22;38223;50.940;4.034;2023-12-07T13:41:23;8.00;99.90
52267;DHT22;38223;50.940;4.034;2023-12-07T13:43:50;7.90;99.90
52267;DHT22;38223;50.940;4.034;2023-12-07T13:46:19;8.00;99.90
52267;DHT22;38223;50.940;4.034;2023-12-07T13:48:46;8.00;99.90
52267;DHT22;38223;50.940;4.034;2023-12-07T13:51:13;8.10;99.90
52267;DHT22;38223;50.940;4.034;2023-12-07T13:53:41;8.00;99.90
52267;DHT22;38223;50.940;4.034;2023-12-07T13:56:08;8.00;99.90
52267;DHT22;38223;50.940;4.034;2023-12-07T13:58:35;7.90;99.90
52267;DHT22;38223;50.940;4.034;2023-12-07T14:01:04;8.00;99.90
52267;DHT22;38223;50.940;4.034;2023-12-07T14:03:32;8.10;99.90
52267;DHT22;38223;50.940;4.034;2023-12-07T14:05:59;8.10;99.90
52267;DHT22;38223;50.940;4.034;2023-12-07T14:08:29;8.10;99.90
52267;DHT22;38223;50.940;4.034;2023-12-07T14:10:57;8.30;99.90
52267;DHT22;38223;50.940;4.034;2023-12-07T14:13:25;8.40;99.90
52267;DHT22;38223;50.940;4.034;2023-12-07T14:15:53;8.50;99.90
52267;DHT22;38223;50.940;4.034;2023-12-07T14:18:21;8.50;99.90
52267;DHT22;38223;50.940;4.034;2023-12-07T14:20:53;8.30;99.90
52267;DHT22;38223;50.940;4.034;2023-12-07T14:23:21;8.50;99.90
52267;DHT22;38223;50.940;4.034;2023-12-07T14:25:51;8.40;99.90
52267;DHT22;38223;50.940;4.034;2023-12-07T14:28:21;8.40;99.90
52267;DHT22;38223;50.940;4.034;2023-12-07T14:30:49;8.30;99.90
52267;DHT22;38223;50.940;4.034;2023-12-07T14:33:20;8.30;99.90
52267;DHT22;38223;50.940;4.034;2023-12-07T14:35:48;8.30;99.90
52267;DHT22;38223;50.940;4.034;2023-12-07T14:38:15;8.30;99.90
52267;DHT22;38223;50.940;4.034;2023-12-07T14:40:43;8.30;99.90
52267;DHT22;38223;50.940;4.034;2023-12-07T14:43:09;8.40;99.90
52267;DHT22;38223;50.940;4.034;2023-12-07T14:45:38;8.40;99.90
52267;DHT22;38223;50.940;4.034;2023-12-07T14:48:04;8.50;99.90
52267;DHT22;38223;50.940;4.034;2023-12-07T14:50:32;8.50;99.90
52267;DHT22;38223;50.940;4.034;2023-12-07T14:53:00;8.50;99.90
52267;DHT22;38223;50.940;4.034;2023-12-07T14:55:28;8.40;99.90
52267;DHT22;38223;50.940;4.034;2023-12-07T14:57:55;8.40;99.90
52267;DHT22;38223;50.940;4.034;2023-12-07T15:00:24;8.40;99.90
52267;DHT22;38223;50.940;4.034;2023-12-07T15:02:54;8.30;99.90
52267;DHT22;38223;50.940;4.034;2023-12-07T15:05:23;8.30;99.90
52267;DHT22;38223;50.940;4.034;2023-12-07T15:07:52;8.30;99.90
52267;DHT22;38223;50.940;4.034;2023-12-07T15:10:21;8.30;99.90
52267;DHT22;38223;50.940;4.034;2023-12-07T15:12:49;8.40;99.90
52267;DHT22;38223;50.940;4.034;2023-12-07T15:15:17;8.40;99.90
52267;DHT22;38223;50.940;4.034;2023-12-07T15:17:46;8.30;99.90
52267;DHT22;38223;50.940;4.034;2023-12-07T15:20:13;8.50;99.90
52267;DHT22;38223;50.940;4.034;2023-12-07T15:22:40;8.50;99.90
52267;DHT22;38223;50.940;4.034;2023-12-07T15:25:07;8.40;99.90
52267;DHT22;38223;50.940;4.034;2023-12-07T15:27:34;8.40;99.90
52267;DHT22;38223;50.940;4.034;2023-12-07T15:30:01;8.50;99.90
52267;DHT22;38223;50.940;4.034;2023-12-07T15:32:30;8.30;99.90
52267;DHT22;38223;50.940;4.034;2023-12-07T15:34:57;8.40;99.90
52267;DHT22;38223;50.940;4.034;2023-12-07T15:37:24;8.40;99.90
52267;DHT22;38223;50.940;4.034;2023-12-07T15:39:52;8.30;99.90
52267;DHT22;38223;50.940;4.034;2023-12-07T15:42:22;8.30;99.90
52267;DHT22;38223;50.940;4.034;2023-12-07T15:44:51;8.20;99.90
52267;DHT22;38223;50.940;4.034;2023-12-07T15:47:20;8.20;99.90
52267;DHT22;38223;50.940;4.034;2023-12-07T15:49:47;8.30;99.90
52267;DHT22;38223;50.940;4.034;2023-12-07T15:52:15;8.20;99.90
52267;DHT22;38223;50.940;4.034;2023-12-07T15:54:42;8.00;99.90
52267;DHT22;38223;50.940;4.034;2023-12-07T15:57:10;8.10;99.90
52267;DHT22;38223;50.940;4.034;2023-12-07T15:59:38;8.00;99.90
52267;DHT22;38223;50.940;4.034;2023-12-07T16:02:08;7.80;99.90
52267;DHT22;38223;50.940;4.034;2023-12-07T16:04:38;7.90;99.90
52267;DHT22;38223;50.940;4.034;2023-12-07T16:07:07;7.90;99.90
52267;DHT22;38223;50.940;4.034;2023-12-07T16:09:37;7.90;99.90
52267;DHT22;38223;50.940;4.034;2023-12-07T16:12:06;8.00;99.90
52267;DHT22;38223;50.940;4.034;2023-12-07T16:14:33;8.00;99.90
52267;DHT22;38223;50.940;4.034;2023-12-07T16:16:59;8.00;99.90
52267;DHT22;38223;50.940;4.034;2023-12-07T16:19:27;8.10;99.90
52267;DHT22;38223;50.940;4.034;2023-12-07T16:21:54;7.90;99.90
52267;DHT22;38223;50.940;4.034;2023-12-07T16:24:21;7.90;99.90
52267;DHT22;38223;50.940;4.034;2023-12-07T16:26:47;8.00;99.90
52267;DHT22;38223;50.940;4.034;2023-12-07T16:29:14;8.20;99.90
52267;DHT22;38223;50.940;4.034;2023-12-07T16:31:41;8.20;99.90
52267;DHT22;38223;50.940;4.034;2023-12-07T16:34:08;8.10;99.90
52267;DHT22;38223;50.940;4.034;2023-12-07T16:36:35;8.20;99.90
52267;DHT22;38223;50.940;4.034;2023-12-07T16:39:02;8.30;99.90
52267;DHT22;38223;50.940;4.034;2023-12-07T16:41:29;8.30;99.90
52267;DHT22;38223;50.940;4.034;2023-12-07T16:43:58;8.30;99.90
52267;DHT22;38223;50.940;4.034;2023-12-07T16:46:25;8.20;99.90
52267;DHT22;38223;50.940;4.034;2023-12-07T16:48:52;8.50;99.90